Temp: 4.9°C   Baro: 1017.2mb
  Wind: 0.0mph   Dir: NNW (342°)
  Rain: 0.0mm (0.0mm/hr)
  Solar: 0W/m2  Hum: 84%

Historic data

Bath Spa Weather Station Historical Data
Daily Summary for October 9, 2021 Units:  Metric    English   Both
Daily Weekly Monthly Yearly Custom
  High: Low: Average:
Temperature: 19.6 °C 11.2 °C 14.4 °C
Dew Point: 13.8 °C 10.7 °C 12.3 °C
Humidity: 94% 65.8% 85%
Wind Speed: 6.6km/h 0km/h 1.3km/h
Wind Gust: 12.9km/h - -
Wind- - West
Pressure: 1030 hPa 1028 hPa -
Precipitation: 0 mm    
Historical Graphs
 
 
Tabular Data for October 9, 2021
Time Temperature Dew Point Pressure Wind Wind Speed Wind Gust Humidity Rainfall Rate (Hourly) solar
00:04 14.6 °C 13.6 °C 1029 hPa West 1.6 km/h 4.8 km/h 91% 0 mm 0 W/m2
00:09 14.4 °C 13.4 °C 1028.7 hPa West 4 km/h 6.4 km/h 91% 0 mm 0 W/m2
00:14 14.4 °C 13.4 °C 1028.7 hPa West 0.3 km/h 4.8 km/h 91% 0 mm 0 W/m2
00:19 14.4 °C 13.4 °C 1028.7 hPa West 1.8 km/h 4.8 km/h 91% 0 mm 0 W/m2
00:24 14.3 °C 13.3 °C 1028.7 hPa West 1.6 km/h 4.8 km/h 91% 0 mm 0 W/m2
00:29 14.3 °C 13.3 °C 1028.7 hPa West 0.3 km/h 3.2 km/h 91% 0 mm 0 W/m2
00:34 14.2 °C 13.2 °C 1028.7 hPa West 0.6 km/h 3.2 km/h 91% 0 mm 0 W/m2
00:39 14.2 °C 13.2 °C 1028.7 hPa Calm   3.2 km/h 91% 0 mm 0 W/m2
00:44 14.2 °C 13.2 °C 1028.7 hPa West 0.3 km/h 1.6 km/h 91% 0 mm 0 W/m2
00:49 14.2 °C 13.2 °C 1028.7 hPa Calm   1.6 km/h 91% 0 mm 0 W/m2
00:54 14.2 °C 13.2 °C 1028.7 hPa Calm   1.6 km/h 91% 0 mm 0 W/m2
00:59 14.2 °C 13.2 °C 1028.7 hPa Calm     91% 0 mm 0 W/m2
01:04 14.2 °C 13.2 °C 1028.7 hPa West 0.8 km/h 4.8 km/h 91% 0 mm 0 W/m2
01:09 14.1 °C 13.1 °C 1028.7 hPa West 1.9 km/h 6.4 km/h 91% 0 mm 0 W/m2
01:14 14.1 °C 13.1 °C 1028.7 hPa West 0.3 km/h 6.4 km/h 91% 0 mm 0 W/m2
01:19 14.1 °C 13.2 °C 1028.7 hPa West 2.1 km/h 6.4 km/h 91.4% 0 mm 0 W/m2
01:24 14.1 °C 13.3 °C 1028.7 hPa West 1.9 km/h 8 km/h 92% 0 mm 0 W/m2
01:29 14.1 °C 13.3 °C 1028.7 hPa West 1.8 km/h 8 km/h 92% 0 mm 0 W/m2
01:34 14.1 °C 13.3 °C 1028.7 hPa West 0.8 km/h 4.8 km/h 92% 0 mm 0 W/m2
01:39 14.1 °C 13.3 °C 1028.7 hPa West 1.3 km/h 4.8 km/h 92% 0 mm 0 W/m2
01:44 14.1 °C 13.3 °C 1028.3 hPa West 1 km/h 4.8 km/h 92% 0 mm 0 W/m2
01:49 14.1 °C 13.3 °C 1028.3 hPa West 1 km/h 4.8 km/h 92% 0 mm 0 W/m2
01:54 14.1 °C 13.2 °C 1028.3 hPa Calm   4.8 km/h 92% 0 mm 0 W/m2
01:59 14 °C 13.2 °C 1028.3 hPa Calm   1.6 km/h 92% 0 mm 0 W/m2
02:04 14 °C 13.2 °C 1028.3 hPa West 1.3 km/h 4.8 km/h 92% 0 mm 0 W/m2
02:09 14 °C 13.2 °C 1028.3 hPa West 1.9 km/h 6.4 km/h 92% 0 mm 0 W/m2
02:14 14 °C 13.2 °C 1028.3 hPa West 1.6 km/h 6.4 km/h 92% 0 mm 0 W/m2
02:19 14 °C 13.2 °C 1028.3 hPa West 0.3 km/h 4.8 km/h 92% 0 mm 0 W/m2
02:24 13.9 °C 13.2 °C 1028.3 hPa West 0.6 km/h 3.2 km/h 92% 0 mm 0 W/m2
02:29 13.9 °C 13.2 °C 1028.3 hPa West 0.6 km/h 4.8 km/h 92% 0 mm 0 W/m2
02:34 13.9 °C 13.1 °C 1028.3 hPa West 0.6 km/h 4.8 km/h 92% 0 mm 0 W/m2
02:39 13.9 °C 13.1 °C 1028.3 hPa West 1.3 km/h 4.8 km/h 92% 0 mm 0 W/m2
02:44 13.9 °C 13.1 °C 1028.3 hPa West 0.6 km/h 4.8 km/h 92% 0 mm 0 W/m2
02:49 13.9 °C 13.1 °C 1028.3 hPa West 0.8 km/h 4.8 km/h 92% 0 mm 0 W/m2
02:54 13.9 °C 13.1 °C 1028.3 hPa Calm   1.6 km/h 92% 0 mm 0 W/m2
02:59 13.9 °C 13.1 °C 1028.3 hPa West 0.3 km/h 3.2 km/h 92% 0 mm 0 W/m2
03:04 13.9 °C 13.1 °C 1028.3 hPa West 1.3 km/h 4.8 km/h 92% 0 mm 0 W/m2
03:09 14 °C 13.2 °C 1028.3 hPa West 0.6 km/h 4.8 km/h 92% 0 mm 0 W/m2
03:14 14 °C 13.2 °C 1028.3 hPa Calm   1.6 km/h 92% 0 mm 0 W/m2
03:19 14 °C 13.2 °C 1028.3 hPa West 0.6 km/h 3.2 km/h 92% 0 mm 0 W/m2
03:24 14 °C 13.2 °C 1028.3 hPa Calm   3.2 km/h 92% 0 mm 0 W/m2
03:29 14.1 °C 13.2 °C 1028.3 hPa West 0.8 km/h 3.2 km/h 92% 0 mm 0 W/m2
03:34 14.1 °C 13.2 °C 1028.3 hPa West 0.3 km/h 3.2 km/h 92% 0 mm 0 W/m2
03:39 14.1 °C 13.3 °C 1028.3 hPa West 2.7 km/h 4.8 km/h 92% 0 mm 0 W/m2
03:44 14.1 °C 13.4 °C 1028.3 hPa West 1 km/h 4.8 km/h 92.8% 0 mm 0 W/m2
03:49 14.1 °C 13.5 °C 1028.3 hPa West 0.8 km/h 3.2 km/h 93% 0 mm 0 W/m2
03:54 14.1 °C 13.5 °C 1028 hPa West 1.3 km/h 4.8 km/h 93% 0 mm 0 W/m2
03:59 14.1 °C 13.5 °C 1028 hPa Calm   1.6 km/h 93% 0 mm 0 W/m2
04:04 14 °C 13.3 °C 1028 hPa West 0.6 km/h 4.8 km/h 92.6% 0 mm 0 W/m2
04:09 13.9 °C 13.1 °C 1028 hPa West 2.9 km/h 6.4 km/h 92% 0 mm 0 W/m2
04:14 13.9 °C 13.1 °C 1028 hPa West 0.8 km/h 4.8 km/h 92% 0 mm 0 W/m2
04:19 13.9 °C 13.1 °C 1028 hPa West 0.3 km/h 3.2 km/h 92% 0 mm 0 W/m2
04:24 13.8 °C 13 °C 1028 hPa West 3.1 km/h 6.4 km/h 92% 0 mm 0 W/m2
04:29 13.7 °C 12.9 °C 1028 hPa West 1.4 km/h 6.4 km/h 92% 0 mm 0 W/m2
04:34 13.7 °C 13 °C 1028 hPa West 3.2 km/h 4.8 km/h 92.6% 0 mm 0 W/m2
04:39 13.7 °C 13.1 °C 1028 hPa West 3.2 km/h 8 km/h 93% 0 mm 0 W/m2
04:44 13.6 °C 12.9 °C 1028 hPa West 1.3 km/h 6.4 km/h 92.6% 0 mm 0 W/m2
04:49 13.5 °C 12.7 °C 1028 hPa West 0.8 km/h 4.8 km/h 92% 0 mm 0 W/m2
04:54 13.4 °C 12.6 °C 1028 hPa West 2.4 km/h 6.4 km/h 92% 0 mm 0 W/m2
04:59 13.4 °C 12.6 °C 1028 hPa West 1.6 km/h 6.4 km/h 92% 0 mm 0 W/m2
05:04 13.3 °C 12.7 °C 1028 hPa West 2.3 km/h 4.8 km/h 93% 0 mm 0 W/m2
05:09 13.3 °C 12.6 °C 1028 hPa West 1.4 km/h 4.8 km/h 92.8% 0 mm 0 W/m2
05:14 13.2 °C 12.3 °C 1028 hPa West 0.6 km/h 3.2 km/h 92% 0 mm 0 W/m2
05:19 13.1 °C 12.3 °C 1028 hPa Calm   3.2 km/h 92% 0 mm 0 W/m2
05:24 13.1 °C 12.3 °C 1028.3 hPa West 0.8 km/h 3.2 km/h 92.6% 0 mm 0 W/m2
05:29 13 °C 12.4 °C 1028.3 hPa West 0.3 km/h 3.2 km/h 93% 0 mm 0 W/m2
05:34 13 °C 12.4 °C 1028.3 hPa West 1.6 km/h 3.2 km/h 93% 0 mm 0 W/m2
05:39 12.9 °C 12.3 °C 1028.3 hPa West 1.1 km/h 4.8 km/h 93% 0 mm 0 W/m2
05:44 12.9 °C 12.3 °C 1028.3 hPa West 0.3 km/h 3.2 km/h 93% 0 mm 0 W/m2
05:49 12.8 °C 12.2 °C 1028.3 hPa Calm   1.6 km/h 93% 0 mm 0 W/m2
05:54 12.8 °C 12.2 °C 1028.3 hPa Calm     93% 0 mm 0 W/m2
05:59 12.7 °C 12.1 °C 1028.3 hPa Calm     93% 0 mm 0 W/m2
06:04 12.7 °C 12.1 °C 1028.3 hPa West 0.6 km/h 3.2 km/h 93% 0 mm 0 W/m2
06:09 12.6 °C 12 °C 1028.3 hPa West 0.3 km/h 4.8 km/h 93% 0 mm 0 W/m2
06:14 12.4 °C 11.8 °C 1028.3 hPa West 1.3 km/h 4.8 km/h 93% 0 mm 0 W/m2
06:19 12.4 °C 11.8 °C 1028.3 hPa West 1 km/h 4.8 km/h 93% 0 mm 0 W/m2
06:24 12.3 °C 11.7 °C 1028.3 hPa West 0.3 km/h 4.8 km/h 93% 0 mm 0 W/m2
06:29 12.2 °C 11.6 °C 1028.3 hPa West 1.3 km/h 3.2 km/h 93% 0 mm 0 W/m2
06:34 12.2 °C 11.6 °C 1028.3 hPa Calm   3.2 km/h 93% 0 mm 0 W/m2
06:39 12.2 °C 11.6 °C 1028.3 hPa West 1.1 km/h 4.8 km/h 93% 0 mm 0 W/m2
06:44 12.1 °C 11.5 °C 1028.3 hPa West 1.9 km/h 6.4 km/h 93% 0 mm 0 W/m2
06:49 12.1 °C 11.5 °C 1028.3 hPa West 0.6 km/h 4.8 km/h 93% 0 mm 0 W/m2
06:54 12 °C 11.4 °C 1028.3 hPa West 2.1 km/h 4.8 km/h 93% 0 mm 0 W/m2
06:59 11.9 °C 11.3 °C 1028.3 hPa West 1.1 km/h 4.8 km/h 93% 0 mm 0 W/m2
07:04 11.8 °C 11.3 °C 1028.3 hPa Calm   3.2 km/h 93% 0 mm 0 W/m2
07:09 11.8 °C 11.2 °C 1028.3 hPa West 0.3 km/h 3.2 km/h 93% 0 mm 0 W/m2
07:14 11.7 °C 11.1 °C 1028.3 hPa Calm     93% 0 mm 0 W/m2
07:19 11.6 °C 11 °C 1028.7 hPa Calm     93% 0 mm 0 W/m2
07:24 11.5 °C 10.9 °C 1028.7 hPa Calm     93% 0 mm 5 W/m2
07:29 11.4 °C 10.8 °C 1028.7 hPa Calm     93% 0 mm 7 W/m2
07:34 11.3 °C 10.8 °C 1028.7 hPa Calm     93% 0 mm 11 W/m2
07:39 11.3 °C 10.7 °C 1028.7 hPa Calm     93% 0 mm 12 W/m2
07:44 11.3 °C 10.7 °C 1028.7 hPa Calm   1.6 km/h 93% 0 mm 16 W/m2
07:49 11.3 °C 10.7 °C 1028.7 hPa Calm     93% 0 mm 18 W/m2
07:54 11.2 °C 10.7 °C 1028.7 hPa Calm   1.6 km/h 93.6% 0 mm 21 W/m2
07:58 11.2 °C 10.8 °C 1028.7 hPa Calm   1.6 km/h 94% 0 mm 25 W/m2
08:04 11.2 °C 10.8 °C 1028.7 hPa West 0.8 km/h 3.2 km/h 94% 0 mm 30 W/m2
08:09 11.2 °C 10.8 °C 1028.7 hPa Calm     94% 0 mm 37 W/m2
08:14 11.2 °C 10.8 °C 1028.7 hPa Calm   1.6 km/h 94% 0 mm 44 W/m2
08:19 11.2 °C 10.8 °C 1029 hPa West 0.3 km/h 1.6 km/h 94% 0 mm 46 W/m2
08:24 11.3 °C 10.9 °C 1029 hPa West 0.6 km/h 1.6 km/h 94% 0 mm 53 W/m2
08:29 11.2 °C 10.8 °C 1029 hPa Calm   1.6 km/h 94% 0 mm 65 W/m2
08:34 11.2 °C 10.8 °C 1029 hPa Calm   3.2 km/h 94% 0 mm 70 W/m2
08:39 11.2 °C 10.8 °C 1029 hPa West 1.1 km/h 4.8 km/h 94% 0 mm 76 W/m2
08:44 11.2 °C 10.8 °C 1029 hPa West 0.6 km/h 3.2 km/h 94% 0 mm 76 W/m2
08:49 11.3 °C 10.9 °C 1029.3 hPa West 1.6 km/h 4.8 km/h 94% 0 mm 76 W/m2
08:54 11.3 °C 10.9 °C 1029.3 hPa West 0.6 km/h 3.2 km/h 94% 0 mm 86 W/m2
08:59 11.3 °C 10.9 °C 1029.3 hPa West 0.6 km/h 3.2 km/h 94% 0 mm 90 W/m2
09:04 11.4 °C 11 °C 1029.3 hPa West 0.8 km/h 1.6 km/h 94% 0 mm 90 W/m2
09:09 11.3 °C 10.9 °C 1029.3 hPa West 1.4 km/h 3.2 km/h 94% 0 mm 98 W/m2
09:14 11.3 °C 10.9 °C 1029.3 hPa West 1.1 km/h 3.2 km/h 94% 0 mm 142 W/m2
09:19 11.3 °C 10.8 °C 1029.3 hPa Calm   3.2 km/h 94% 0 mm 149 W/m2
09:24 11.3 °C 10.9 °C 1029.3 hPa Calm   1.6 km/h 94% 0 mm 139 W/m2
09:29 11.5 °C 11.1 °C 1029.3 hPa Calm   3.2 km/h 94% 0 mm 139 W/m2
09:34 11.7 °C 11.3 °C 1029.3 hPa Calm   1.6 km/h 94% 0 mm 160 W/m2
09:39 11.8 °C 11.3 °C 1029.3 hPa West 0.6 km/h 4.8 km/h 94% 0 mm 169 W/m2
09:44 11.6 °C 11.2 °C 1029.3 hPa West 2.6 km/h 4.8 km/h 94% 0 mm 158 W/m2
09:49 11.5 °C 11.1 °C 1029.3 hPa West 2.3 km/h 6.4 km/h 94% 0 mm 248 W/m2
09:53 11.7 °C 11.3 °C 1029.3 hPa West 3.2 km/h 6.4 km/h 94% 0 mm 320 W/m2
09:59 11.8 °C 11.4 °C 1029.3 hPa West 3.9 km/h 6.4 km/h 94% 0 mm 327 W/m2
10:04 11.9 °C 11.4 °C 1029.3 hPa West 3.9 km/h 6.4 km/h 93.4% 0 mm 332 W/m2
10:09 12.1 °C 11.4 °C 1029.3 hPa West 2.1 km/h 6.4 km/h 93% 0 mm 329 W/m2
10:14 12.3 °C 11.7 °C 1029.3 hPa West 0.6 km/h 3.2 km/h 93% 0 mm 343 W/m2
10:19 12.8 °C 12.1 °C 1029.3 hPa West 1.9 km/h 4.8 km/h 92.4% 0 mm 239 W/m2
10:24 12.8 °C 11.9 °C 1029.3 hPa Calm   3.2 km/h 91.2% 0 mm 250 W/m2
10:29 12.8 °C 11.7 °C 1029.3 hPa West 0.6 km/h 4.8 km/h 90.4% 0 mm 192 W/m2
10:34 13 °C 11.9 °C 1029.3 hPa Calm     90% 0 mm 192 W/m2
10:39 13.3 °C 12.2 °C 1029.3 hPa West 1.6 km/h 4.8 km/h 89.8% 0 mm 218 W/m2
10:44 13.2 °C 11.9 °C 1029.3 hPa West 0.3 km/h 4.8 km/h 89% 0 mm 446 W/m2
10:49 13.7 °C 12.3 °C 1029.3 hPa West 1 km/h 8 km/h 88.6% 0 mm 230 W/m2
10:54 13.5 °C 11.9 °C 1029.3 hPa West 2.1 km/h 8 km/h 87% 0 mm 429 W/m2
10:59 13.8 °C 12.3 °C 1029.3 hPa West 1.6 km/h 8 km/h 87.6% 0 mm 512 W/m2
11:04 14.5 °C 12.8 °C 1029.3 hPa West 0.6 km/h 6.4 km/h 86.4% 0 mm 512 W/m2
11:09 14.7 °C 12.5 °C 1029.3 hPa West 3.4 km/h 8 km/h 84.2% 0 mm 512 W/m2
11:14 15.1 °C 12.7 °C 1029.3 hPa West 1 km/h 6.4 km/h 83% 0 mm 501 W/m2
11:19 14.8 °C 12.3 °C 1029.3 hPa West 0.6 km/h 6.4 km/h 82.2% 0 mm 462 W/m2
11:24 15.2 °C 12.7 °C 1029.3 hPa Calm     82.4% 0 mm 200 W/m2
11:29 15.6 °C 12.8 °C 1029.3 hPa West 2.6 km/h 6.4 km/h 81.4% 0 mm 550 W/m2
11:34 15.8 °C 12.8 °C 1029.3 hPa West 3.7 km/h 8 km/h 79.2% 0 mm 555 W/m2
11:39 15.8 °C 12.6 °C 1029.3 hPa West 5.1 km/h 8 km/h 78.6% 0 mm 570 W/m2
11:44 15.7 °C 12.4 °C 1029.3 hPa West 5.6 km/h 8 km/h 78% 0 mm 531 W/m2
11:49 15.2 °C 11.9 °C 1029.3 hPa West 4.2 km/h 9.7 km/h 78% 0 mm 534 W/m2
11:54 15.5 °C 12.4 °C 1029.3 hPa West 1.9 km/h 6.4 km/h 79% 0 mm 513 W/m2
11:59 16.4 °C 12.9 °C 1029.3 hPa West 1.9 km/h 6.4 km/h 77.4% 0 mm 482 W/m2
12:04 17.2 °C 13.2 °C 1029.3 hPa West 1.3 km/h 6.4 km/h 74.6% 0 mm 476 W/m2
12:09 17.2 °C 12.9 °C 1029.3 hPa West 1.9 km/h 6.4 km/h 73.2% 0 mm 459 W/m2
12:14 17.4 °C 12.8 °C 1029.3 hPa West 3.2 km/h 6.4 km/h 72% 0 mm 489 W/m2
12:19 17.2 °C 12.5 °C 1029.3 hPa West 5.6 km/h 11.3 km/h 71.4% 0 mm 489 W/m2
12:24 15.7 °C 11.6 °C 1029.3 hPa West 4.5 km/h 11.3 km/h 74% 0 mm 487 W/m2
12:29 15.5 °C 11.8 °C 1029.3 hPa West 5.5 km/h 12.9 km/h 76.2% 0 mm 492 W/m2
12:34 16.2 °C 12.4 °C 1029.3 hPa West 1.3 km/h 4.8 km/h 75.6% 0 mm 487 W/m2
12:39 17.3 °C 12.9 °C 1029.3 hPa West 2.9 km/h 9.7 km/h 73.4% 0 mm 494 W/m2
12:44 17.8 °C 12.9 °C 1029.3 hPa West 4 km/h 6.4 km/h 70.8% 0 mm 496 W/m2
12:49 17.7 °C 12.8 °C 1029.3 hPa West 5.1 km/h 8 km/h 71% 0 mm 508 W/m2
12:54 18.1 °C 13 °C 1029.3 hPa West 5.1 km/h 8 km/h 70% 0 mm 510 W/m2
12:59 18 °C 12.8 °C 1029.3 hPa West 2.4 km/h 9.7 km/h 69.4% 0 mm 499 W/m2
13:04 17.9 °C 12.7 °C 1029.3 hPa West 1.4 km/h 9.7 km/h 69.6% 0 mm 508 W/m2
13:09 17.3 °C 12.6 °C 1029 hPa West 3.1 km/h 9.7 km/h 71% 0 mm 494 W/m2
13:14 17.4 °C 12.6 °C 1029 hPa West 2.1 km/h 9.7 km/h 70.8% 0 mm 490 W/m2
13:19 17.5 °C 12.7 °C 1029 hPa West 4 km/h 9.7 km/h 71% 0 mm 513 W/m2
13:24 16.8 °C 12.1 °C 1029 hPa West 4.5 km/h 9.7 km/h 71.8% 0 mm 506 W/m2
13:29 16.7 °C 12.3 °C 1029 hPa West 3.2 km/h 8 km/h 73% 0 mm 506 W/m2
13:34 16.7 °C 12.4 °C 1029 hPa West 4 km/h 9.7 km/h 73.2% 0 mm 508 W/m2
13:39 17.4 °C 13.1 °C 1029 hPa West 2.6 km/h 8 km/h 73.2% 0 mm 513 W/m2
13:44 18.3 °C 13.2 °C 1029 hPa West 4.5 km/h 9.7 km/h 70% 0 mm 513 W/m2
13:49 18.3 °C 13.3 °C 1029 hPa West 3.2 km/h 9.7 km/h 70.2% 0 mm 508 W/m2
13:54 19 °C 13.6 °C 1029 hPa West 4.2 km/h 8 km/h 68.6% 0 mm 471 W/m2
13:59 18.8 °C 13.3 °C 1029 hPa West 0.3 km/h 4.8 km/h 68.6% 0 mm 526 W/m2
14:04 19.4 °C 13.8 °C 1029 hPa West 1.9 km/h 6.4 km/h 68% 0 mm 526 W/m2
14:09 19.6 °C 13.7 °C 1029 hPa West 0.3 km/h 3.2 km/h 66.8% 0 mm 506 W/m2
14:14 19.2 °C 13.7 °C 1028.7 hPa West 1.6 km/h 6.4 km/h 68.4% 0 mm 485 W/m2
14:19 19.1 °C 13.2 °C 1029 hPa West 4.7 km/h 9.7 km/h 66.4% 0 mm 480 W/m2
14:24 18.3 °C 12.9 °C 1028.7 hPa West 1.9 km/h 6.4 km/h 68.4% 0 mm 251 W/m2
14:29 18.1 °C 12.9 °C 1028.7 hPa West 3.5 km/h 9.7 km/h 69.8% 0 mm 478 W/m2
14:34 18.5 °C 13 °C 1028.7 hPa West 1.3 km/h 6.4 km/h 68.2% 0 mm 482 W/m2
14:39 18.7 °C 13.1 °C 1028.7 hPa West 3.4 km/h 9.7 km/h 67.8% 0 mm 454 W/m2
14:44 18.4 °C 12.9 °C 1028.7 hPa West 5.1 km/h 9.7 km/h 68.2% 0 mm 432 W/m2
14:49 18.7 °C 13.2 °C 1028.7 hPa West 4.8 km/h 9.7 km/h 67.8% 0 mm 508 W/m2
14:54 19.4 °C 13.5 °C 1028.7 hPa West 3.9 km/h 8 km/h 66.4% 0 mm 450 W/m2
14:59 19.6 °C 13.4 °C 1028.7 hPa West 6.6 km/h 9.7 km/h 65.8% 0 mm 432 W/m2
15:04 19.3 °C 13.3 °C 1028.3 hPa West 3.2 km/h 6.4 km/h 66.4% 0 mm 185 W/m2
15:09 19.1 °C 13.3 °C 1028.3 hPa West 1.3 km/h 8 km/h 67.2% 0 mm 406 W/m2
15:14 18.9 °C 13 °C 1028.3 hPa West 4 km/h 9.7 km/h 66.8% 0 mm 179 W/m2
15:19 18.7 °C 13.1 °C 1028.3 hPa West 2.6 km/h 6.4 km/h 67.8% 0 mm 366 W/m2
15:24 18.6 °C 13.1 °C 1028.3 hPa West 4.5 km/h 11.3 km/h 68% 0 mm 308 W/m2
15:29 18.1 °C 12.8 °C 1028.3 hPa West 1.4 km/h 8 km/h 69% 0 mm 325 W/m2
15:34 18.6 °C 13.4 °C 1028.3 hPa West 2.3 km/h 6.4 km/h 69.4% 0 mm 322 W/m2
15:39 18.7 °C 13.2 °C 1028.3 hPa West 5 km/h 11.3 km/h 68.2% 0 mm 338 W/m2
15:44 18.4 °C 12.9 °C 1028.3 hPa West 4.7 km/h 12.9 km/h 68.2% 0 mm 323 W/m2
15:49 18.3 °C 13.1 °C 1028.3 hPa West 2.6 km/h 6.4 km/h 69% 0 mm 207 W/m2
15:54 18.6 °C 13.3 °C 1028.3 hPa West 4.7 km/h 8 km/h 69% 0 mm 132 W/m2
15:59 18.5 °C 13.2 °C 1028.3 hPa West 3.7 km/h 8 km/h 69% 0 mm 107 W/m2
16:04 18.2 °C 12.9 °C 1028.3 hPa West 4.8 km/h 8 km/h 69% 0 mm 128 W/m2
16:09 17.9 °C 12.9 °C 1028.3 hPa West 3.2 km/h 8 km/h 70.4% 0 mm 262 W/m2
16:14 17.9 °C 12.8 °C 1028.3 hPa West 1 km/h 8 km/h 70% 0 mm 202 W/m2
16:19 17.8 °C 12.7 °C 1028.3 hPa West 3.9 km/h 8 km/h 70% 0 mm 204 W/m2
16:24 17.7 °C 12.7 °C 1028.3 hPa West 3.9 km/h 9.7 km/h 70.6% 0 mm 202 W/m2
16:29 17.6 °C 12.8 °C 1028.3 hPa West 5 km/h 11.3 km/h 71% 0 mm 160 W/m2
16:34 17.7 °C 12.7 °C 1028.3 hPa West 4.2 km/h 11.3 km/h 70.4% 0 mm 102 W/m2
16:39 17.7 °C 12.6 °C 1028.3 hPa West 1.9 km/h 8 km/h 70.2% 0 mm 135 W/m2
16:44 17.7 °C 12.9 °C 1028.3 hPa West 2.3 km/h 6.4 km/h 71% 0 mm 130 W/m2
16:49 17.8 °C 12.8 °C 1028.3 hPa West 2.7 km/h 4.8 km/h 70% 0 mm 123 W/m2
16:54 17.7 °C 12.6 °C 1028.3 hPa West 2.3 km/h 6.4 km/h 69.8% 0 mm 100 W/m2
16:59 17.6 °C 12.5 °C 1028.3 hPa West 1.3 km/h 4.8 km/h 70% 0 mm 86 W/m2
17:04 17.6 °C 12.6 °C 1028.3 hPa Calm     70.3% 0 mm 79 W/m2
17:09 17.6 °C 12.8 °C 1028.3 hPa Calm     71% 0 mm 74 W/m2
17:14 17.6 °C 12.9 °C 1028.3 hPa Calm     71.8% 0 mm 69 W/m2
17:19 17.5 °C 12.9 °C 1028.3 hPa Calm     72% 0 mm 67 W/m2
17:24 17.5 °C 12.9 °C 1028.3 hPa Calm     72.2% 0 mm 62 W/m2
17:29 17.4 °C 13 °C 1028.3 hPa Calm     72.8% 0 mm 58 W/m2
17:34 17.3 °C 12.9 °C 1028.3 hPa Calm     73% 0 mm 53 W/m2
17:39 17.2 °C 12.9 °C 1028.3 hPa Calm     73.4% 0 mm 47 W/m2
17:44 17.1 °C 12.9 °C 1028.3 hPa Calm     74.2% 0 mm 42 W/m2
17:49 16.9 °C 12.9 °C 1028.3 hPa Calm     75% 0 mm 39 W/m2
17:54 16.7 °C 12.8 °C 1028.3 hPa Calm     75.2% 0 mm 32 W/m2
17:59 16.6 °C 12.7 °C 1028.3 hPa Calm     76% 0 mm 26 W/m2
18:04 16.3 °C 12.7 °C 1028.3 hPa Calm     76.4% 0 mm 23 W/m2
18:09 16.3 °C 12.7 °C 1028.7 hPa Calm     77% 0 mm 18 W/m2
18:14 16.2 °C 12.6 °C 1028.7 hPa Calm     77% 0 mm 12 W/m2
18:19 16.1 °C 12.6 °C 1028.7 hPa Calm     77% 0 mm 9 W/m2
18:24 15.8 °C 12.5 °C 1028.7 hPa Calm     77.8% 0 mm 5 W/m2
18:29 15.6 °C 12.3 °C 1028.7 hPa Calm     78% 0 mm 0 W/m2
18:34 15.3 °C 12.2 °C 1028.7 hPa Calm     79% 0 mm 0 W/m2
18:39 15.1 °C 12.1 °C 1028.7 hPa Calm     79.8% 0 mm 0 W/m2
18:44 14.8 °C 12 °C 1028.7 hPa Calm     80.2% 0 mm 0 W/m2
18:49 14.8 °C 12.1 °C 1028.7 hPa Calm     81% 0 mm 0 W/m2
18:54 14.8 °C 12.2 °C 1028.7 hPa Calm     81.6% 0 mm 0 W/m2
18:59 14.7 °C 12.1 °C 1028.7 hPa Calm     82% 0 mm 0 W/m2
19:04 14.4 °C 11.9 °C 1028.7 hPa Calm     82% 0 mm 0 W/m2
19:09 14.2 °C 11.8 °C 1029 hPa Calm     82.6% 0 mm 0 W/m2
19:14 14.2 °C 11.8 °C 1029 hPa Calm     83% 0 mm 0 W/m2
19:19 14.2 °C 11.8 °C 1029 hPa Calm     83.2% 0 mm 0 W/m2
19:24 14.1 °C 11.9 °C 1029 hPa Calm     84% 0 mm 0 W/m2
19:29 14.1 °C 11.8 °C 1029 hPa Calm     84% 0 mm 0 W/m2
19:34 14 °C 11.8 °C 1029 hPa Calm     84% 0 mm 0 W/m2
19:39 13.9 °C 11.7 °C 1029 hPa Calm     84% 0 mm 0 W/m2
19:44 13.8 °C 11.6 °C 1029 hPa Calm     84.2% 0 mm 0 W/m2
19:49 13.7 °C 11.7 °C 1029 hPa Calm     85% 0 mm 0 W/m2
19:54 13.7 °C 11.7 °C 1029.3 hPa Calm     85% 0 mm 0 W/m2
19:59 13.7 °C 11.7 °C 1029.3 hPa Calm     85% 0 mm 0 W/m2
20:04 13.6 °C 11.7 °C 1029.3 hPa Calm     85.2% 0 mm 0 W/m2
20:09 13.6 °C 11.8 °C 1029.3 hPa Calm     86% 0 mm 0 W/m2
20:14 13.5 °C 11.7 °C 1029.3 hPa Calm     86% 0 mm 0 W/m2
20:19 13.5 °C 11.7 °C 1029.3 hPa Calm     86% 0 mm 0 W/m2
20:24 13.5 °C 11.7 °C 1029.3 hPa Calm     86% 0 mm 0 W/m2
20:29 13.6 °C 11.8 °C 1029.3 hPa Calm     86% 0 mm 0 W/m2
20:34 13.6 °C 11.8 °C 1029.3 hPa Calm     86% 0 mm 0 W/m2
20:39 13.6 °C 11.8 °C 1029.3 hPa Calm     86% 0 mm 0 W/m2
20:44 13.6 °C 11.8 °C 1029.3 hPa Calm     86.4% 0 mm 0 W/m2
20:49 13.6 °C 11.8 °C 1029.3 hPa Calm     86.6% 0 mm 0 W/m2
20:54 13.5 °C 11.7 °C 1029.3 hPa Calm     86% 0 mm 0 W/m2
20:59 13.5 °C 11.8 °C 1029.7 hPa Calm     86.2% 0 mm 0 W/m2
21:04 13.5 °C 11.8 °C 1029.3 hPa Calm     86.6% 0 mm 0 W/m2
21:09 13.4 °C 11.8 °C 1029.7 hPa Calm     87% 0 mm 0 W/m2
21:14 13.4 °C 11.8 °C 1029.7 hPa Calm     87% 0 mm 0 W/m2
21:19 13.3 °C 11.7 °C 1029.7 hPa Calm     87% 0 mm 0 W/m2
21:24 13.2 °C 11.6 °C 1029.7 hPa Calm     87% 0 mm 0 W/m2
21:29 13 °C 11.4 °C 1029.7 hPa Calm     87% 0 mm 0 W/m2
21:34 12.9 °C 11.3 °C 1029.7 hPa Calm     87.2% 0 mm 0 W/m2
21:39 13 °C 11.6 °C 1029.7 hPa Calm     88% 0 mm 0 W/m2
21:44 13.1 °C 11.6 °C 1029.7 hPa Calm     88% 0 mm 0 W/m2
21:49 13.1 °C 11.6 °C 1029.7 hPa Calm     88% 0 mm 0 W/m2
21:54 13.1 °C 11.6 °C 1029.7 hPa Calm     88% 0 mm 0 W/m2
21:59 13.1 °C 11.6 °C 1030 hPa Calm     88% 0 mm 0 W/m2
22:04 12.9 °C 11.6 °C 1029.7 hPa Calm     88% 0 mm 0 W/m2
22:09 12.9 °C 11.5 °C 1029.7 hPa Calm     88% 0 mm 0 W/m2
22:14 12.9 °C 11.5 °C 1029.7 hPa Calm     88% 0 mm 0 W/m2
22:19 12.8 °C 11.4 °C 1030 hPa Calm     88% 0 mm 0 W/m2
22:24 12.8 °C 11.3 °C 1030 hPa Calm     88% 0 mm 0 W/m2
22:29 12.7 °C 11.3 °C 1030 hPa Calm     88% 0 mm 0 W/m2
22:34 12.7 °C 11.4 °C 1030 hPa Calm     89% 0 mm 0 W/m2
22:39 12.7 °C 11.4 °C 1030 hPa Calm     89% 0 mm 0 W/m2
22:44 12.8 °C 11.5 °C 1030 hPa Calm     89% 0 mm 0 W/m2
22:49 12.7 °C 11.4 °C 1030 hPa Calm     89% 0 mm 0 W/m2
22:54 12.7 °C 11.3 °C 1030 hPa Calm     89% 0 mm 0 W/m2
22:59 12.7 °C 11.4 °C 1030 hPa Calm     89% 0 mm 0 W/m2
23:04 12.8 °C 11.4 °C 1030 hPa Calm     89% 0 mm 0 W/m2
23:09 12.8 °C 11.5 °C 1030 hPa Calm     89% 0 mm 0 W/m2
23:14 12.8 °C 11.5 °C 1030 hPa Calm     89% 0 mm 0 W/m2
23:19 12.8 °C 11.5 °C 1030 hPa Calm     89% 0 mm 0 W/m2
23:24 12.8 °C 11.5 °C 1030 hPa Calm     89% 0 mm 0 W/m2
23:29 12.8 °C 11.5 °C 1030 hPa Calm     89% 0 mm 0 W/m2
23:34 12.8 °C 11.5 °C 1030 hPa Calm     89% 0 mm 0 W/m2
23:39 12.8 °C 11.5 °C 1030 hPa Calm     89% 0 mm 0 W/m2
23:44 12.8 °C 11.5 °C 1030 hPa Calm     89% 0 mm 0 W/m2
23:49 12.8 °C 11.5 °C 1030 hPa Calm     89% 0 mm 0 W/m2
23:54 12.8 °C 11.4 °C 1030 hPa Calm     89% 0 mm 0 W/m2
23:59 12.8 °C 11.5 °C 1030 hPa Calm     89% 0 mm 0 W/m2
Bath Spa Weather
Compliments of Weather Underground - 2 mb